22:27
Airports
History
Links
Donate
Help keep this website running!
PayPal
Bitcoin
This page is community maintained. The information is intended for PC simulator navigation or reference.
Always use approved charts for navigation.
CYCB
CAMBRIDGE BAY
CAMBRIDGE BAY (CYCB)
Cambridge Bay, Nunavut, Canada
4
Lat/Lng:69° 6' 29" N / 105° 8' 18" W
69.108056 / -105.138334
Elevation:90'ft / 27mMSL
ID / ICAO:CYCB
Runways:1
Longest:13T-31T
Gravel 1,529m / 5,016ft
METAR22:00 GMT 2017-09-19
Altimeter: 30.25
Visibility: 15.0 statute miles
Wind: 14 knots (from 090°)
Temp: 0°c / 32°f
Humidity: %

METAR: CYCB 192200Z 09014KT 15SM BKN012 00/M03 A3025 RMK SC7 CIG RAG SLP248

(Powered by phpweather)
Airport Radio Frequencies
MANDATORY FREQ: 122.1
Nearby VORs <50NM
Nearby NDBs
Runway 13T / 31T
Dimensions:1528.9 x 45.7m 5016' x 150'ft
Surface:Gravel
Edge Lights:Medium intensity
Runway 13T [A]Runway 31T [B]
Heading:127°TH 307°TH
Lat:
Lng:
69° 6' 44"N
105° 9' 13"W
69° 6' 14"N
105° 7' 23"W
ALS:ODALSODALS
User Notes and Comments
69° 6' 29" N / 105° 8' 18" W
Distance To
Airport ID:
Nearby Airports
4 Gjoa Haven 233.4 NM
CYHK E 98°
4 KUGLUKTUK 268.6 NM
CYCO ( WX ) WSW 250°
4 Lupin 282.4 NM
CYWO SW 214°
4 TALOYOAK 283.2 NM
CYYH E 83°
4 ULUKHAKTOK HOLMAN 320.6 NM
CYHI WNW 290°
4 KUGAARUK 383.7 NM
CYBB E 95°
4 Great Bear Lake 412.1 NM
FF4 WSW 246°
VFR Chart
Flight Planning at SkyVector.com